createdAt,value
2019-04-07T00:01:13.908Z,52.15
2019-04-07T00:03:47.121Z,47.75
2019-04-07T00:06:20.340Z,59.20
2019-04-07T00:08:53.593Z,49.65
2019-04-07T00:11:26.687Z,53.55
2019-04-07T00:14:00.993Z,45.98
2019-04-07T00:16:33.900Z,57.08
2019-04-07T00:19:06.728Z,46.48
2019-04-07T00:21:39.654Z,49.13
2019-04-07T00:24:12.589Z,56.50
2019-04-07T00:26:45.490Z,52.53
2019-04-07T00:29:19.880Z,54.77
2019-04-07T00:31:52.889Z,57.40
2019-04-07T00:34:25.790Z,54.33
2019-04-07T00:36:59.002Z,57.38
2019-04-07T00:39:32.304Z,56.37
2019-04-07T00:42:05.302Z,51.92
2019-04-07T00:44:38.882Z,53.10
2019-04-07T00:47:11.878Z,53.42
2019-04-07T00:49:45.080Z,52.67
2019-04-07T00:52:22.171Z,55.52
2019-04-07T00:54:55.562Z,56.92
2019-04-07T00:57:30.118Z,49.18
2019-04-07T01:00:04.404Z,60.08
2019-04-07T01:02:38.919Z,58.90
2019-04-07T01:05:12.717Z,51.35
2019-04-07T01:07:46.323Z,57.62
2019-04-07T01:10:19.462Z,67.03
2019-04-07T01:12:52.354Z,69.55
2019-04-07T01:15:25.361Z,56.15
2019-04-07T01:17:58.764Z,61.85
2019-04-07T01:20:32.971Z,58.20
2019-04-07T01:23:08.120Z,54.53
2019-04-07T01:25:41.170Z,63.02
2019-04-07T01:28:14.199Z,54.98
2019-04-07T01:30:48.015Z,59.03
2019-04-07T01:33:22.350Z,52.43
2019-04-07T01:35:57.147Z,49.63
2019-04-07T01:38:30.738Z,44.93
2019-04-07T01:41:15.304Z,44.13
2019-04-07T01:44:00.934Z,53.42
2019-04-07T01:47:01.585Z,55.10
2019-04-07T01:49:46.592Z,57.73
2019-04-07T01:52:50.475Z,57.17
2019-04-07T01:55:45.532Z,60.30
2019-04-07T01:58:40.712Z,54.98
2019-04-07T02:01:28.677Z,53.83
2019-04-07T02:04:20.445Z,52.95
2019-04-07T02:07:12.132Z,63.30
2019-04-07T02:09:57.258Z,60.40
2019-04-07T02:12:42.512Z,61.40
2019-04-07T02:15:40.596Z,58.45
2019-04-07T02:18:18.789Z,52.10
2019-04-07T02:21:09.678Z,59.50
2019-04-07T02:23:52.913Z,71.82
2019-04-07T02:26:40.595Z,63.70
2019-04-07T02:29:40.039Z,59.18
2019-04-07T02:32:42.038Z,57.93
2019-04-07T02:35:40.301Z,61.45
2019-04-07T02:38:27.790Z,61.28
2019-04-07T02:41:19.876Z,61.40
2019-04-07T02:44:23.905Z,68.85
2019-04-07T02:47:18.448Z,58.95
2019-04-07T02:50:08.872Z,56.55
2019-04-07T02:52:57.179Z,63.75
2019-04-07T02:55:39.136Z,64.75
2019-04-07T02:58:27.153Z,73.07
2019-04-07T03:01:31.622Z,67.35
2019-04-07T03:04:24.216Z,64.47
2019-04-07T03:07:15.244Z,63.33
2019-04-07T03:10:07.681Z,66.50
2019-04-07T03:12:48.751Z,69.00
2019-04-07T03:15:41.358Z,68.87
2019-04-07T03:18:31.813Z,65.28
2019-04-07T03:21:27.942Z,67.53
2019-04-07T03:24:17.389Z,65.05
2019-04-07T03:27:15.732Z,64.37
2019-04-07T03:30:11.465Z,65.78
2019-04-07T03:33:05.828Z,59.77
2019-04-07T03:36:04.023Z,62.73
2019-04-07T03:38:59.065Z,63.08
2019-04-07T03:41:44.001Z,74.17
2019-04-07T03:44:25.620Z,60.23
2019-04-07T03:47:18.377Z,64.40
2019-04-07T03:50:03.354Z,65.62
2019-04-07T03:52:55.181Z,61.05
2019-04-07T03:56:05.952Z,64.55
2019-04-07T03:58:49.458Z,66.20
2019-04-07T04:01:41.449Z,61.18
2019-04-07T04:04:31.392Z,62.53
2019-04-07T04:07:29.972Z,63.02
2019-04-07T04:10:14.192Z,62.50
2019-04-07T04:13:09.133Z,69.30
2019-04-07T04:15:53.205Z,65.70
2019-04-07T04:18:26.389Z,63.65
2019-04-07T04:20:59.656Z,69.05
2019-04-07T04:23:33.464Z,66.77
2019-04-07T04:26:06.601Z,65.90
2019-04-07T04:28:39.431Z,74.12
2019-04-07T04:31:13.000Z,63.50
2019-04-07T04:33:46.406Z,66.87
2019-04-07T04:36:19.395Z,58.95
2019-04-07T04:38:52.822Z,66.85
2019-04-07T04:41:27.393Z,71.55
2019-04-07T04:44:02.184Z,68.25
2019-04-07T04:46:35.205Z,63.73
2019-04-07T04:49:08.048Z,62.23
2019-04-07T04:51:42.651Z,62.43
2019-04-07T04:54:17.206Z,61.23
2019-04-07T04:56:50.378Z,57.80
2019-04-07T04:59:23.338Z,59.55
2019-04-07T05:01:56.451Z,63.50
2019-04-07T05:04:29.403Z,63.23
2019-04-07T05:07:02.189Z,65.08
2019-04-07T05:09:44.281Z,69.58
2019-04-07T05:12:10.543Z,65.08
2019-04-07T05:14:43.351Z,65.03
2019-04-07T05:17:16.424Z,68.80
2019-04-07T05:19:49.803Z,62.05
2019-04-07T05:22:22.756Z,72.55
2019-04-07T05:24:55.617Z,74.53
2019-04-07T05:27:28.398Z,78.85
2019-04-07T05:30:01.272Z,62.93
2019-04-07T05:32:34.181Z,68.70
2019-04-07T05:35:07.881Z,65.42
2019-04-07T05:37:41.762Z,85.12
2019-04-07T05:40:15.494Z,79.20
2019-04-07T05:42:48.469Z,72.10
2019-04-07T05:45:21.468Z,70.75
2019-04-07T05:47:54.406Z,76.95
2019-04-07T05:50:28.772Z,67.95
2019-04-07T05:53:01.974Z,63.45
2019-04-07T05:55:34.824Z,70.42
2019-04-07T05:58:08.498Z,67.67
2019-04-07T06:00:45.757Z,67.95
2019-04-07T06:03:17.592Z,72.35
2019-04-07T06:05:51.253Z,59.93
2019-04-07T06:08:33.798Z,70.00
2019-04-07T06:11:01.555Z,66.97
2019-04-07T06:13:35.524Z,70.00
2019-04-07T06:16:09.485Z,65.20
2019-04-07T06:18:43.362Z,60.60
2019-04-07T06:21:17.266Z,61.18
2019-04-07T06:23:50.778Z,60.20
2019-04-07T06:26:24.023Z,54.83
2019-04-07T06:28:58.756Z,61.33
2019-04-07T06:31:33.753Z,57.13
2019-04-07T06:34:08.169Z,56.18
2019-04-07T06:36:41.053Z,62.30
2019-04-07T06:39:17.168Z,66.28
2019-04-07T06:41:48.921Z,57.43
2019-04-07T06:44:23.188Z,52.67
2019-04-07T06:47:21.469Z,59.98
2019-04-07T06:50:14.130Z,61.80
2019-04-07T06:53:20.635Z,65.30
2019-04-07T06:56:14.523Z,61.60
2019-04-07T06:59:13.855Z,58.83
2019-04-07T07:02:06.485Z,55.30
2019-04-07T07:05:07.296Z,58.48
2019-04-07T07:07:59.705Z,60.15
2019-04-07T07:10:55.216Z,80.80
2019-04-07T07:13:41.323Z,56.23
2019-04-07T07:16:41.086Z,60.08
2019-04-07T07:19:29.562Z,55.48
2019-04-07T07:22:26.796Z,53.65
2019-04-07T07:25:01.278Z,54.15
2019-04-07T07:27:38.845Z,56.92
2019-04-07T07:30:10.650Z,55.03
2019-04-07T07:32:44.237Z,53.83
2019-04-07T07:35:18.021Z,53.83
2019-04-07T07:37:51.127Z,62.27
2019-04-07T07:40:24.200Z,55.25
2019-04-07T07:42:59.115Z,63.63
2019-04-07T07:45:37.280Z,50.83
2019-04-07T07:48:10.925Z,49.15
2019-04-07T07:50:44.598Z,37.58
2019-04-07T07:53:21.896Z,45.17
2019-04-07T07:55:53.517Z,39.83
2019-04-07T07:58:30.823Z,54.55
2019-04-07T08:01:01.754Z,51.33
2019-04-07T08:03:35.181Z,38.90
2019-04-07T08:06:08.491Z,44.98
2019-04-07T08:08:45.178Z,46.70
2019-04-07T08:11:17.544Z,45.58
2019-04-07T08:13:53.626Z,40.50
2019-04-07T08:16:29.385Z,37.95
2019-04-07T08:19:01.556Z,32.15
2019-04-07T08:21:34.528Z,34.50
2019-04-07T08:24:08.060Z,45.15
2019-04-07T08:26:41.059Z,34.55
2019-04-07T08:29:14.708Z,50.83
2019-04-07T08:31:51.476Z,44.93
2019-04-07T08:34:23.430Z,45.03
2019-04-07T08:36:57.442Z,35.63
2019-04-07T08:39:33.568Z,34.27
2019-04-07T08:42:09.736Z,32.30
2019-04-07T08:44:39.751Z,41.63
2019-04-07T08:47:18.877Z,32.78
2019-04-07T08:49:48.083Z,37.78
2019-04-07T08:52:21.244Z,36.75
2019-04-07T08:54:54.043Z,30.30
2019-04-07T08:57:30.099Z,35.17
2019-04-07T09:00:01.637Z,30.82
2019-04-07T09:02:36.071Z,32.10
2019-04-07T09:05:10.357Z,26.27
2019-04-07T09:07:43.547Z,32.15
2019-04-07T09:10:21.778Z,29.18
2019-04-07T09:12:58.708Z,19.45
2019-04-07T09:15:36.889Z,40.25
2019-04-07T09:18:28.619Z,28.83
2019-04-07T09:21:20.459Z,31.48
2019-04-07T09:24:12.655Z,25.77
2019-04-07T09:26:56.433Z,28.40
2019-04-07T09:29:58.172Z,33.67
2019-04-07T09:32:54.732Z,33.50
2019-04-07T09:35:46.621Z,29.60
2019-04-07T09:38:51.277Z,27.40
2019-04-07T09:41:35.307Z,54.33
2019-04-07T09:44:37.240Z,23.62
2019-04-07T09:47:25.910Z,29.82
2019-04-07T09:50:28.536Z,23.65
2019-04-07T09:53:21.430Z,29.20
2019-04-07T09:56:10.576Z,33.45
2019-04-07T09:59:07.882Z,26.05
2019-04-07T10:02:08.208Z,32.00
2019-04-07T10:05:05.837Z,37.17
2019-04-07T10:08:07.294Z,29.70
2019-04-07T10:11:04.139Z,27.45
2019-04-07T10:13:52.020Z,25.00
2019-04-07T10:16:33.897Z,26.62
2019-04-07T10:19:28.296Z,32.93
2019-04-07T10:22:21.206Z,25.35
2019-04-07T10:25:12.119Z,31.30
2019-04-07T10:28:02.964Z,35.60
2019-04-07T10:30:58.584Z,25.08
2019-04-07T10:34:03.042Z,27.60
2019-04-07T10:36:53.600Z,27.50
2019-04-07T10:39:56.814Z,27.77
2019-04-07T10:42:55.332Z,26.12
2019-04-07T10:45:47.270Z,24.45
2019-04-07T10:48:31.577Z,35.48
2019-04-07T10:51:36.878Z,30.23
2019-04-07T10:54:18.859Z,25.52
2019-04-07T10:57:02.342Z,30.62
2019-04-07T10:59:56.867Z,26.35
2019-04-07T11:03:00.847Z,24.70
2019-04-07T11:05:57.066Z,33.90
2019-04-07T11:08:53.557Z,33.63
2019-04-07T11:12:04.625Z,27.42
2019-04-07T11:15:00.079Z,24.25
2019-04-07T11:17:45.429Z,32.48
2019-04-07T11:20:33.864Z,29.35
2019-04-07T11:23:19.820Z,30.08
2019-04-07T11:26:31.018Z,28.02
2019-04-07T11:29:14.417Z,23.75
2019-04-07T11:31:57.917Z,24.80
2019-04-07T11:34:41.416Z,24.60
2019-04-07T11:37:32.853Z,27.80
2019-04-07T11:40:30.361Z,25.60
2019-04-07T11:43:14.118Z,30.80
2019-04-07T11:46:06.883Z,21.02
2019-04-07T11:48:54.885Z,36.58
2019-04-07T11:51:54.113Z,30.08
2019-04-07T11:54:47.892Z,27.60
2019-04-07T11:57:43.279Z,33.08
2019-04-07T12:00:35.815Z,26.60
2019-04-07T12:03:40.433Z,33.50
2019-04-07T12:06:28.133Z,23.90
2019-04-07T12:09:29.389Z,25.85
2019-04-07T12:12:22.824Z,23.32
2019-04-07T12:15:15.941Z,25.50
2019-04-07T12:18:14.921Z,23.55
2019-04-07T12:20:50.762Z,24.67
2019-04-07T12:23:34.419Z,22.60
2019-04-07T12:26:24.849Z,31.02
2019-04-07T12:29:14.796Z,29.42
2019-04-07T12:32:06.779Z,21.40
2019-04-07T12:35:05.261Z,18.95
2019-04-07T12:37:46.707Z,25.40
2019-04-07T12:40:52.931Z,21.52
2019-04-07T12:43:49.532Z,20.40
2019-04-07T12:46:38.733Z,19.95
2019-04-07T12:49:34.356Z,23.92
2019-04-07T12:52:28.082Z,19.50
2019-04-07T12:55:17.850Z,24.67
2019-04-07T12:58:10.766Z,22.75
2019-04-07T13:01:19.967Z,25.48
2019-04-07T13:04:12.225Z,24.35
2019-04-07T13:07:04.186Z,21.62
2019-04-07T13:10:04.179Z,42.48
2019-04-07T13:12:59.210Z,26.95
2019-04-07T13:16:00.290Z,21.68
2019-04-07T13:18:43.854Z,25.92
2019-04-07T13:21:34.124Z,21.00
2019-04-07T13:24:30.156Z,25.55
2019-04-07T13:27:04.075Z,26.50
2019-04-07T13:29:48.279Z,25.15
2019-04-07T13:32:39.270Z,21.82
2019-04-07T13:35:19.627Z,24.82
2019-04-07T13:38:04.470Z,20.57
2019-04-07T13:40:57.478Z,23.25
2019-04-07T13:43:52.789Z,22.15
2019-04-07T13:46:36.065Z,26.07
2019-04-07T13:49:27.491Z,21.70
2019-04-07T13:52:24.685Z,23.50
2019-04-07T13:55:17.163Z,26.45
2019-04-07T13:58:25.009Z,24.45
2019-04-07T14:01:26.751Z,17.65
2019-04-07T14:04:34.426Z,28.35
2019-04-07T14:07:29.504Z,20.95
2019-04-07T14:10:27.478Z,20.08
2019-04-07T14:13:40.367Z,21.10
2019-04-07T14:16:31.267Z,21.77
2019-04-07T14:19:24.240Z,16.10
2019-04-07T14:22:25.564Z,16.62
2019-04-07T14:25:23.502Z,17.37
2019-04-07T14:28:04.699Z,14.60
2019-04-07T14:30:45.519Z,18.82
2019-04-07T14:33:49.524Z,24.80
2019-04-07T14:36:40.495Z,20.85
2019-04-07T14:39:24.885Z,31.02
2019-04-07T14:42:22.485Z,18.87
2019-04-07T14:45:14.546Z,17.55
2019-04-07T14:48:05.408Z,19.65
2019-04-07T14:50:57.116Z,21.23
2019-04-07T14:54:04.393Z,25.77
2019-04-07T14:57:09.377Z,27.50
2019-04-07T14:59:54.148Z,22.95
2019-04-07T15:02:26.585Z,24.05
2019-04-07T15:05:04.060Z,24.82
2019-04-07T15:08:05.126Z,18.05
2019-04-07T15:10:41.924Z,19.42
2019-04-07T15:13:18.206Z,18.73
2019-04-07T15:15:52.400Z,22.07
2019-04-07T15:18:25.547Z,20.80
2019-04-07T15:20:59.299Z,24.10
2019-04-07T15:23:33.372Z,21.87
2019-04-07T15:26:06.407Z,17.25
2019-04-07T15:28:39.228Z,16.95
2019-04-07T15:31:12.059Z,15.85
2019-04-07T15:33:45.606Z,20.45
2019-04-07T15:36:19.649Z,16.50
2019-04-07T15:38:55.394Z,26.97
2019-04-07T15:41:27.547Z,22.52
2019-04-07T15:44:01.563Z,15.13
2019-04-07T15:46:35.462Z,22.02
2019-04-07T15:49:08.837Z,24.00
2019-04-07T15:51:41.858Z,22.25
2019-04-07T15:54:17.658Z,20.32
2019-04-07T15:56:50.479Z,22.45
2019-04-07T15:59:24.856Z,23.90
2019-04-07T16:01:58.586Z,19.60
2019-04-07T16:04:31.949Z,20.95
2019-04-07T16:07:05.066Z,18.23
2019-04-07T16:09:48.831Z,20.30
2019-04-07T16:12:13.462Z,21.17
2019-04-07T16:14:47.090Z,18.55
2019-04-07T16:17:21.092Z,18.17
2019-04-07T16:19:56.232Z,25.02
2019-04-07T16:22:29.222Z,21.93
2019-04-07T16:25:10.084Z,20.08
2019-04-07T16:27:47.475Z,20.55
2019-04-07T16:30:21.606Z,26.23
2019-04-07T16:33:01.967Z,30.48
2019-04-07T16:35:38.182Z,35.88
2019-04-07T16:38:13.050Z,32.78
2019-04-07T16:41:02.689Z,33.65
2019-04-07T16:43:37.772Z,40.43
2019-04-07T16:46:13.651Z,36.13
2019-04-07T16:48:53.323Z,39.67
2019-04-07T16:51:29.478Z,41.55
2019-04-07T16:54:08.721Z,34.95
2019-04-07T16:56:45.728Z,31.42
2019-04-07T16:59:32.760Z,36.60
2019-04-07T17:02:17.894Z,24.92
2019-04-07T17:05:12.024Z,32.48
2019-04-07T17:07:55.413Z,38.42
2019-04-07T17:10:52.642Z,41.42
2019-04-07T17:13:39.491Z,52.62
2019-04-07T17:16:12.221Z,61.02
2019-04-07T17:18:56.200Z,75.47
2019-04-07T17:21:39.346Z,54.65
2019-04-07T17:24:27.183Z,50.83
2019-04-07T17:27:00.216Z,63.87
2019-04-07T17:29:37.221Z,77.90
2019-04-07T17:32:16.842Z,77.05
2019-04-07T17:34:58.028Z,98.92
2019-04-07T17:37:37.406Z,106.37
2019-04-07T17:40:15.769Z,102.30
2019-04-07T17:42:52.748Z,81.02
2019-04-07T17:45:43.150Z,65.08
2019-04-07T17:48:37.340Z,58.17
2019-04-07T17:51:25.497Z,63.17
2019-04-07T17:54:32.523Z,66.37
2019-04-07T17:57:25.855Z,65.45
2019-04-07T18:00:23.723Z,78.15
2019-04-07T18:03:10.294Z,75.42
2019-04-07T18:06:03.811Z,88.47
2019-04-07T18:08:48.568Z,72.17
2019-04-07T18:11:37.764Z,46.48
2019-04-07T18:14:31.294Z,48.83
2019-04-07T18:17:28.905Z,74.75
2019-04-07T18:20:25.863Z,110.35
2019-04-07T18:23:28.966Z,165.05
2019-04-07T18:26:27.422Z,154.78
2019-04-07T18:29:17.884Z,214.42
2019-04-07T18:32:16.645Z,196.00
2019-04-07T18:35:09.481Z,166.68
2019-04-07T18:37:55.900Z,174.90
2019-04-07T18:40:55.778Z,182.15
2019-04-07T18:44:01.916Z,218.07
2019-04-07T18:47:04.685Z,203.32
2019-04-07T18:49:58.121Z,721.17
2019-04-07T18:52:53.225Z,391.12
2019-04-07T18:55:42.138Z,308.17
2019-04-07T18:58:39.872Z,289.82
2019-04-07T19:01:41.357Z,445.70
2019-04-07T19:04:45.692Z,280.10
2019-04-07T19:07:48.637Z,236.45
2019-04-07T19:10:38.887Z,253.95
2019-04-07T19:13:27.413Z,210.32
2019-04-07T19:16:10.970Z,201.22
2019-04-07T19:19:10.847Z,181.07
2019-04-07T19:22:08.904Z,170.72
2019-04-07T19:25:09.214Z,198.72
2019-04-07T19:28:03.425Z,397.77
2019-04-07T19:30:46.880Z,321.20
2019-04-07T19:34:01.268Z,310.43
2019-04-07T19:37:03.962Z,305.23
2019-04-07T19:40:06.038Z,305.48
2019-04-07T19:42:58.366Z,331.82
2019-04-07T19:46:09.626Z,436.52
2019-04-07T19:49:04.287Z,446.18
2019-04-07T19:51:57.396Z,350.18
2019-04-07T19:54:47.132Z,324.10
2019-04-07T19:57:42.721Z,283.68
2019-04-07T20:00:52.859Z,303.95
2019-04-07T20:03:40.503Z,258.23
2019-04-07T20:06:32.539Z,259.85
2019-04-07T20:09:21.560Z,307.65
2019-04-07T20:12:11.572Z,289.30
2019-04-07T20:15:16.370Z,287.55
2019-04-07T20:18:11.131Z,269.45
2019-04-07T20:21:08.303Z,273.85
2019-04-07T20:24:09.312Z,274.95
2019-04-07T20:27:17.562Z,283.75
2019-04-07T20:30:17.677Z,293.10
2019-04-07T20:33:10.352Z,304.32
2019-04-07T20:36:06.592Z,292.37
2019-04-07T20:39:05.067Z,291.68
2019-04-07T20:42:00.968Z,207.30
2019-04-07T20:44:59.986Z,192.37
2019-04-07T20:48:00.083Z,229.65
2019-04-07T20:51:00.499Z,401.15
2019-04-07T20:53:52.033Z,411.73
2019-04-07T20:56:59.732Z,300.02
2019-04-07T20:59:50.403Z,248.13
2019-04-07T21:02:48.728Z,279.95
2019-04-07T21:05:35.666Z,242.87
2019-04-07T21:08:15.052Z,201.60
2019-04-07T21:11:01.558Z,217.00
2019-04-07T21:14:01.774Z,321.43
2019-04-07T21:16:53.023Z,215.12
2019-04-07T21:19:54.390Z,261.73
2019-04-07T21:22:51.936Z,350.65
2019-04-07T21:25:57.281Z,447.73
2019-04-07T21:28:49.298Z,392.92
2019-04-07T21:31:41.017Z,333.02
2019-04-07T21:34:41.709Z,291.05
2019-04-07T21:37:25.421Z,245.45
2019-04-07T21:40:08.651Z,250.53
2019-04-07T21:43:06.443Z,237.63
2019-04-07T21:45:53.012Z,233.97
2019-04-07T21:48:50.913Z,226.95
2019-04-07T21:51:37.762Z,220.80
2019-04-07T21:54:30.697Z,226.18
2019-04-07T21:57:21.395Z,225.45
2019-04-07T22:00:12.627Z,204.28
2019-04-07T22:02:59.168Z,220.67
2019-04-07T22:05:49.440Z,228.95
2019-04-07T22:08:30.530Z,223.68
2019-04-07T22:11:03.664Z,224.25
2019-04-07T22:13:36.795Z,230.03
2019-04-07T22:16:10.080Z,264.65
2019-04-07T22:18:43.112Z,274.88
2019-04-07T22:21:16.994Z,279.32
2019-04-07T22:23:50.712Z,251.98
2019-04-07T22:26:23.537Z,258.47
2019-04-07T22:28:57.834Z,233.13
2019-04-07T22:31:36.746Z,223.50
2019-04-07T22:34:09.592Z,220.00
2019-04-07T22:36:45.466Z,243.55
2019-04-07T22:39:17.304Z,228.62
2019-04-07T22:41:50.532Z,191.98
2019-04-07T22:44:24.476Z,215.52
2019-04-07T22:46:57.325Z,191.95
2019-04-07T22:49:32.226Z,158.27
2019-04-07T22:52:05.489Z,173.62
2019-04-07T22:54:38.950Z,168.43
2019-04-07T22:57:14.154Z,161.75
2019-04-07T22:59:47.174Z,151.47
2019-04-07T23:02:20.186Z,140.82
2019-04-07T23:04:53.029Z,146.93
2019-04-07T23:07:25.848Z,143.85
2019-04-07T23:09:58.983Z,113.52
2019-04-07T23:12:32.851Z,120.20
2019-04-07T23:15:06.468Z,121.42
2019-04-07T23:17:40.475Z,114.62
2019-04-07T23:20:15.092Z,122.95
2019-04-07T23:22:48.058Z,110.75
2019-04-07T23:25:22.895Z,113.92
2019-04-07T23:27:56.313Z,106.30
2019-04-07T23:30:31.250Z,105.37
2019-04-07T23:33:04.365Z,112.80
2019-04-07T23:35:37.296Z,107.20
2019-04-07T23:38:10.121Z,97.70
2019-04-07T23:40:43.160Z,114.55
2019-04-07T23:43:16.026Z,132.57
2019-04-07T23:45:49.648Z,114.97
2019-04-07T23:48:22.580Z,101.65
2019-04-07T23:50:56.158Z,116.35
2019-04-07T23:54:11.383Z,111.22
2019-04-07T23:56:45.472Z,108.47
2019-04-07T23:59:18.727Z,113.57
